My Meet Scores
Taormina Amelio, Elite Gymnastics Center - MyMeetScores.com
Top100 | Top Teams | Upcoming Meets | Completed Meets | Latest | Add Scores | Help| Support | Bookmark and Share

Taormina Amelio, Elite Gymnastics Center
Personal Bests
LevelVault BarsBeamFloorAA
XG9.0009.200 8.8009.00035.400
XP8.7007.600 8.6008.70032.250
XS9.3759.225 8.4508.60035.525
Meet Scores
Date Meet Team Session Level Division Vault Bars Beam Floor AA
2022-04-02 2022 XG, XP, XD State Championships Elite Gymnastics Center 6 XP Sr C 7.800 69 7.550 64T 7.600 58 8.400 53T 31.350 66
2022-01-15 DGS Northeast Invite Elite Gymnastics Center 5 XP Senior C 8.300 53 5.750 57 8.600 21T 8.500 44 31.150 52
2021-12-17 2021 Thames Valley Christmas Classic Elite Gymnastics Center 4 XP All 8.700 1 7.150 1 6.100 1 8.700 1 30.650 1
2021-11-20 2021 Pilgrim Harvest Invitational Meet Elite Gymnastics Center 06A XP All Ages 8.250 1 6.350 1 8.100 1 8.350 1 31.050 1
2021-11-05 Ro Carlucci Judges Cup To Go Elite Gymnastics Center 6 XP Senior 8.250 27T 7.600 24 8.250 25 8.150 28 32.250 25
2021-04-17 2021 XG,XP,XD CT State Championships Elite Gymnastics Center 7 XP Jr C 8.250 43 6.100 43T 8.600 36 7.525 44 30.475 44
2020-03-07 Holiday Costume Cup 2020 Elite Gymnastics Center 09 XG Youth 8.400 7T 9.200 3 8.800 7T 8.725 11 35.125 8
2020-02-15 2/15/20-2/16/20 CT FVG In house Valentine Inv Elite Gymnastics Center 4 XG Sr A 8.950 5 8.800 9 8.650 10 9.000 8 35.400 9
2020-01-24 American Invitational 2020 Elite Gymnastics Center 4 XG SR 9.000 3T 8.400 7 8.400 6T 9.000 5 34.800 6
2019-12-14 2019 Holiday Classic at University of Bridgep Elite Gymnastics Center 5 XG SR 8.300 12 8.600 5T 8.550 6 8.750 7 34.200 8
2019-04-27 Xcel Gold, Platinum, Diamond State Championsh Elite Gymnastics Center 4 XG Sr A 8.500 58 8.175 42T 8.450 44T 8.075 59 33.200 55T
2019-03-02 2019 Holiday Costume Cup Elite Gymnastics Center 7 XG Junior 8.100 9T 8.150 7 8.800 5T 8.750 7 33.800 7
2019-01-25 Kinetic Kids Invitational 2019 Elite Gymnastics Center 6 XG Sr A 8.775 9 8.900 8T 6.950 11 8.600 11 33.225 11
2019-01-18 DGS Northeast Invite Elite Gymnastics Center 5B XG Jr B 8.100 4T 8.250 3 8.300 6 8.650 3 33.300 4
2018-12-15 2018 Holiday Classic Elite Gymnastics Center 5 XG SR 8.400 7 8.300 9T 8.000 9 8.550 5T 33.250 7
2018-05-05 2018 CT XCEL Silver State Championships Elite Gymnastics Center 3 XS Sr D 8.250 13T 8.900 10 7.800 15T 8.300 16 33.250 16
2018-02-16 Chelsea Piers Winter Challenge Elite Gymnastics Center F-2 XS JR B 9.375 3 9.150 7 8.450 13 8.550 14 35.525 13
2018-01-12 DGS Invitational Elite Gymnastics Center 10B XS 12+ yrs. 9.000 5T 9.000 5T 8.200 14 8.600 9T 34.800 8T
2017-12-15 Holiday Classic Invitational Elite Gymnastics Center 2 XS Gingerbrea 8.150 6 8.400 6 8.150 6 8.550 4T 33.250 5
2017-05-06 2017 Connecticut XS State Championships Elite Gymnastics Center 5 XS Jr G 8.150 16T 8.825 11T 7.800 16 8.550 17 33.325 17
2017-02-18 Chelsea Piers Winter Challenge Elite Gymnastics Center F-1 XS Jr C 7.800 14 9.225 12 7.400 16 8.500 14 32.925 15
2017-01-13 Northeast Invitational Elite Gymnastics Center 12 XS 11 yrs. 8.700 8T 9.100 6 7.650 13 8.300 13 33.750 11
Get your scores on
a t-shirt, pin, or hoodie